createdAt,value
2018-11-06T00:02:35.162Z,10.27
2018-11-06T00:07:37.835Z,10.23
2018-11-06T00:12:40.220Z,10.16
2018-11-06T00:17:42.153Z,10.07
2018-11-06T00:22:44.368Z,10.04
2018-11-06T00:27:46.304Z,10.05
2018-11-06T00:32:48.444Z,9.94
2018-11-06T00:37:50.832Z,9.97
2018-11-06T00:42:52.820Z,9.96
2018-11-06T00:47:54.748Z,9.93
2018-11-06T00:52:57.689Z,9.90
2018-11-06T00:57:59.609Z,9.84
2018-11-06T01:03:01.547Z,9.83
2018-11-06T01:08:03.493Z,9.90
2018-11-06T01:13:05.696Z,9.79
2018-11-06T01:18:07.640Z,9.76
2018-11-06T01:23:09.951Z,9.70
2018-11-06T01:28:11.903Z,9.65
2018-11-06T01:33:14.013Z,9.75
2018-11-06T01:38:16.027Z,9.86
2018-11-06T01:43:18.279Z,9.85
2018-11-06T01:48:20.894Z,9.84
2018-11-06T01:53:23.459Z,9.99
2018-11-06T01:58:25.374Z,10.16
2018-11-06T02:03:27.348Z,10.22
2018-11-06T02:08:29.295Z,10.19
2018-11-06T02:13:31.243Z,10.03
2018-11-06T02:18:33.360Z,9.96
2018-11-06T02:23:35.859Z,9.92
2018-11-06T02:28:38.667Z,9.93
2018-11-06T02:33:41.306Z,9.89
2018-11-06T02:38:43.844Z,9.78
2018-11-06T02:43:45.992Z,9.77
2018-11-06T02:48:47.934Z,9.79
2018-11-06T02:53:50.159Z,9.72
2018-11-06T02:58:52.082Z,9.67
2018-11-06T03:03:54.007Z,9.67
2018-11-06T03:08:57.016Z,9.58
2018-11-06T03:13:58.983Z,9.53
2018-11-06T03:19:00.922Z,9.48
2018-11-06T03:24:03.255Z,9.44
2018-11-06T03:29:05.194Z,9.42
2018-11-06T03:34:07.282Z,9.35
2018-11-06T03:39:09.699Z,9.38
2018-11-06T03:44:11.673Z,9.42
2018-11-06T03:49:13.606Z,9.45
2018-11-06T03:54:15.943Z,9.39
2018-11-06T03:59:18.542Z,9.33
2018-11-06T04:04:20.541Z,9.30
2018-11-06T04:09:22.899Z,9.22
2018-11-06T04:14:24.852Z,9.21
2018-11-06T04:19:27.442Z,9.14
2018-11-06T04:24:29.421Z,9.10
2018-11-06T04:29:31.707Z,9.13
2018-11-06T04:34:33.915Z,9.09
2018-11-06T04:39:35.872Z,9.03
2018-11-06T04:44:38.173Z,9.06
2018-11-06T04:49:40.123Z,8.98
2018-11-06T04:54:42.231Z,8.96
2018-11-06T04:59:44.289Z,8.95
2018-11-06T05:04:46.285Z,8.87
2018-11-06T05:09:49.626Z,8.83
2018-11-06T05:14:51.903Z,8.90
2018-11-06T05:19:54.126Z,8.92
2018-11-06T05:24:56.068Z,8.92
2018-11-06T05:29:57.997Z,8.88
2018-11-06T05:35:00.247Z,8.83
2018-11-06T05:40:14.023Z,8.78
2018-11-06T05:45:15.979Z,8.78
2018-11-06T05:50:17.906Z,8.90
2018-11-06T05:55:20.202Z,8.89
2018-11-06T06:00:22.167Z,8.92
2018-11-06T06:05:24.120Z,8.80
2018-11-06T06:10:26.539Z,8.78
2018-11-06T06:15:28.621Z,8.76
2018-11-06T06:20:30.579Z,8.73
2018-11-06T06:25:32.499Z,9.04
2018-11-06T06:30:35.051Z,9.28
2018-11-06T06:35:36.988Z,9.33
2018-11-06T06:40:39.046Z,9.46
2018-11-06T06:45:41.021Z,9.56
2018-11-06T06:50:42.949Z,9.58
2018-11-06T06:55:45.212Z,9.62
2018-11-06T07:00:47.169Z,9.83
2018-11-06T07:05:49.107Z,9.94
2018-11-06T07:10:51.200Z,10.14
2018-11-06T07:15:53.161Z,10.18
2018-11-06T07:20:55.112Z,10.41
2018-11-06T07:25:57.038Z,10.53
2018-11-06T07:30:58.976Z,10.66
2018-11-06T07:36:01.195Z,10.68
2018-11-06T07:41:03.405Z,10.76
2018-11-06T07:46:05.828Z,10.80
2018-11-06T07:51:08.041Z,10.83
2018-11-06T07:56:10.000Z,10.97
2018-11-06T08:01:11.956Z,11.09
2018-11-06T08:06:13.898Z,11.26
2018-11-06T08:11:15.952Z,11.42
2018-11-06T08:16:17.859Z,11.53
2018-11-06T08:21:19.795Z,11.68
2018-11-06T08:26:21.706Z,11.91
2018-11-06T08:31:23.874Z,12.11
2018-11-06T08:36:25.707Z,12.37
2018-11-06T08:41:28.889Z,12.54
2018-11-06T08:46:31.439Z,12.61
2018-11-06T08:51:33.360Z,12.79
2018-11-06T08:56:35.364Z,12.90
2018-11-06T09:01:37.920Z,13.02
2018-11-06T09:06:39.944Z,13.09
2018-11-06T09:11:41.887Z,13.24
2018-11-06T09:16:43.804Z,13.41
2018-11-06T09:21:45.711Z,13.57
2018-11-06T09:26:47.644Z,13.69
2018-11-06T09:31:49.748Z,13.82
2018-11-06T09:36:51.665Z,13.93
2018-11-06T09:41:53.615Z,14.04
2018-11-06T09:46:55.515Z,14.17
2018-11-06T09:51:57.466Z,14.35
2018-11-06T09:56:59.731Z,14.44
2018-11-06T10:02:01.717Z,14.67
2018-11-06T10:07:03.923Z,14.70
2018-11-06T10:12:06.078Z,14.82
2018-11-06T10:17:08.003Z,14.99
2018-11-06T10:22:09.951Z,15.41
2018-11-06T10:27:11.900Z,15.62
2018-11-06T10:32:13.818Z,15.74
2018-11-06T10:37:15.866Z,15.87
2018-11-06T10:42:17.807Z,16.12
2018-11-06T10:47:19.757Z,16.16
2018-11-06T10:52:21.683Z,16.32
2018-11-06T10:57:23.606Z,16.50
2018-11-06T11:02:31.358Z,16.77
2018-11-06T11:07:33.304Z,16.98
2018-11-06T11:12:35.448Z,16.88
2018-11-06T11:17:37.623Z,16.91
2018-11-06T11:22:40.095Z,17.08
2018-11-06T11:27:42.467Z,17.23
2018-11-06T11:32:45.734Z,17.31
2018-11-06T11:37:47.836Z,17.39
2018-11-06T11:42:49.708Z,17.65
2018-11-06T11:47:51.951Z,17.90
2018-11-06T11:52:54.133Z,18.35
2018-11-06T11:57:56.424Z,18.49
2018-11-06T12:02:58.335Z,18.56
2018-11-06T12:08:00.674Z,18.74
2018-11-06T12:13:02.608Z,18.80
2018-11-06T12:18:04.841Z,18.99
2018-11-06T12:23:06.812Z,19.20
2018-11-06T12:28:08.900Z,19.49
2018-11-06T12:33:10.871Z,19.66
2018-11-06T12:38:12.960Z,19.61
2018-11-06T12:43:15.258Z,19.86
2018-11-06T12:48:17.238Z,20.07
2018-11-06T12:53:19.167Z,20.26
2018-11-06T12:58:25.720Z,20.49
2018-11-06T13:03:27.724Z,20.69
2018-11-06T13:08:29.631Z,20.95
2018-11-06T13:13:31.760Z,21.07
2018-11-06T13:18:33.979Z,21.17
2018-11-06T13:23:36.284Z,21.33
2018-11-06T13:28:38.471Z,21.50
2018-11-06T13:33:40.481Z,21.59
2018-11-06T13:38:42.419Z,21.67
2018-11-06T13:43:44.595Z,21.68
2018-11-06T13:48:46.346Z,21.75
2018-11-06T13:53:48.279Z,21.81
2018-11-06T13:58:50.240Z,21.71
2018-11-06T14:03:52.188Z,21.64
2018-11-06T14:08:54.296Z,21.42
2018-11-06T14:13:56.484Z,21.68
2018-11-06T14:18:58.468Z,21.81
2018-11-06T14:24:00.391Z,21.62
2018-11-06T14:29:02.345Z,21.31
2018-11-06T14:34:04.425Z,21.31
2018-11-06T14:39:06.914Z,21.49
2018-11-06T14:44:08.872Z,21.47
2018-11-06T14:49:10.854Z,20.55
2018-11-06T14:54:12.821Z,19.23
2018-11-06T14:59:15.084Z,18.22
2018-11-06T15:04:17.031Z,17.68
2018-11-06T15:09:19.000Z,17.07
2018-11-06T15:14:21.057Z,16.68
2018-11-06T15:19:23.312Z,16.27
2018-11-06T15:24:25.227Z,16.01
2018-11-06T15:29:27.169Z,15.71
2018-11-06T15:34:29.105Z,15.54
2018-11-06T15:39:31.094Z,15.36
2018-11-06T15:44:33.197Z,15.17
2018-11-06T15:49:35.099Z,15.13
2018-11-06T15:54:37.127Z,15.20
2018-11-06T15:59:38.964Z,15.21
2018-11-06T16:04:40.903Z,15.03
2018-11-06T16:09:42.849Z,14.78
2018-11-06T16:14:45.068Z,14.52
2018-11-06T16:19:47.032Z,14.38
2018-11-06T16:24:49.552Z,14.19
2018-11-06T16:29:51.534Z,14.08
2018-11-06T16:34:53.691Z,14.04
2018-11-06T16:39:55.683Z,13.93
2018-11-06T16:44:57.660Z,13.61
2018-11-06T16:49:59.620Z,13.43
2018-11-06T16:55:01.981Z,13.34
2018-11-06T17:00:05.319Z,13.19
2018-11-06T17:05:07.896Z,13.05
2018-11-06T17:10:11.059Z,12.91
2018-11-06T17:15:14.850Z,12.82
2018-11-06T17:20:17.111Z,12.64
2018-11-06T17:25:20.305Z,12.50
2018-11-06T17:30:22.255Z,12.44
2018-11-06T17:35:24.186Z,12.39
2018-11-06T17:40:26.141Z,12.34
2018-11-06T17:45:28.161Z,12.42
2018-11-06T17:50:36.782Z,12.19
2018-11-06T17:55:39.327Z,12.04
2018-11-06T18:00:41.272Z,11.93
2018-11-06T18:05:43.199Z,11.90
2018-11-06T18:10:45.131Z,11.84
2018-11-06T18:15:47.278Z,11.91
2018-11-06T18:20:49.367Z,11.85
2018-11-06T18:25:51.458Z,11.70
2018-11-06T18:30:53.247Z,11.61
2018-11-06T18:35:55.176Z,11.48
2018-11-06T18:40:57.283Z,11.38
2018-11-06T18:45:59.226Z,11.33
2018-11-06T18:51:01.155Z,11.24
2018-11-06T18:56:03.312Z,11.12
2018-11-06T19:01:05.469Z,11.10
2018-11-06T19:06:07.567Z,11.06
2018-11-06T19:11:09.484Z,11.07
2018-11-06T19:16:11.478Z,11.37
2018-11-06T19:21:13.463Z,11.48
2018-11-06T19:26:15.376Z,11.37
2018-11-06T19:31:17.587Z,11.29
2018-11-06T19:36:19.605Z,11.25
2018-11-06T19:41:21.524Z,11.19
2018-11-06T19:46:23.463Z,11.24
2018-11-06T19:51:25.435Z,11.32
2018-11-06T19:56:27.391Z,11.24
2018-11-06T20:01:29.311Z,11.12
2018-11-06T20:06:31.275Z,10.95
2018-11-06T20:11:33.303Z,10.78
2018-11-06T20:16:35.179Z,10.56
2018-11-06T20:21:37.334Z,10.40
2018-11-06T20:26:39.307Z,10.44
2018-11-06T20:31:41.253Z,10.21
2018-11-06T20:36:43.574Z,10.21
2018-11-06T20:41:45.590Z,10.21
2018-11-06T20:46:47.538Z,10.28
2018-11-06T20:51:50.291Z,10.29
2018-11-06T20:56:52.413Z,10.08
2018-11-06T21:01:54.475Z,9.97
2018-11-06T21:06:56.679Z,9.88
2018-11-06T21:11:58.634Z,9.78
2018-11-06T21:17:00.505Z,9.73
2018-11-06T21:22:02.916Z,9.63
2018-11-06T21:27:05.552Z,9.63
2018-11-06T21:32:07.325Z,9.63
2018-11-06T21:37:09.561Z,9.56
2018-11-06T21:42:11.548Z,9.53
2018-11-06T21:47:13.484Z,9.52
2018-11-06T21:52:15.440Z,9.57
2018-11-06T21:57:17.465Z,9.58
2018-11-06T22:02:19.427Z,9.54
2018-11-06T22:07:21.361Z,9.42
2018-11-06T22:12:23.349Z,9.36
2018-11-06T22:17:25.585Z,9.39
2018-11-06T22:22:27.596Z,9.39
2018-11-06T22:27:29.539Z,9.40
2018-11-06T22:32:32.217Z,9.41
2018-11-06T22:37:34.359Z,9.31
2018-11-06T22:42:36.868Z,9.21
2018-11-06T22:47:39.053Z,9.10
2018-11-06T22:52:41.369Z,9.04
2018-11-06T22:57:43.591Z,9.07
2018-11-06T23:02:45.515Z,8.95
2018-11-06T23:08:55.308Z,8.81
2018-11-06T23:13:57.254Z,8.73
2018-11-06T23:18:59.560Z,8.73
2018-11-06T23:24:01.567Z,8.77
2018-11-06T23:29:04.036Z,8.71
2018-11-06T23:34:06.107Z,8.67
2018-11-06T23:39:08.717Z,8.68
2018-11-06T23:44:10.671Z,8.60
2018-11-06T23:49:12.595Z,8.53
2018-11-06T23:54:14.512Z,8.35
2018-11-06T23:59:16.491Z,8.27
